Time;durP1;ratioP1;P1;durP2;ratioP2;P2;SDS_P1;SDS_P2;PMS_P1;PMS_P2;Temp;Humidity;BMP_temperature;BMP_pressure;BME280_temperature;BME280_humidity;BME280_pressure;Samples;Min_cycle;Max_cycle;Signal;HPM_P1;HPM_P2
2023/03/15 00:00:41;;;;;;;10.05;5.65;;;3.90;99.90;;;;;;4993477;28;20099;-82
2023/03/15 00:03:07;;;;;;;13.75;5.82;;;3.90;99.90;;;;;;5011668;28;20038;-83
2023/03/15 00:05:33;;;;;;;13.73;7.30;;;4.00;99.90;;;;;;5012063;28;20384;-83
2023/03/15 00:08:00;;;;;;;7.72;4.60;;;4.00;99.90;;;;;;4994837;28;20037;-83
2023/03/15 00:10:27;;;;;;;10.23;5.22;;;4.00;99.90;;;;;;4978861;28;20034;-83
2023/03/15 00:12:53;;;;;;;9.25;4.93;;;4.00;99.90;;;;;;4990776;28;20040;-83
2023/03/15 00:15:20;;;;;;;12.30;5.20;;;4.00;99.90;;;;;;4994740;28;20042;-83
2023/03/15 00:17:46;;;;;;;10.40;4.80;;;4.00;99.90;;;;;;5011246;28;20036;-83
2023/03/15 00:20:17;;;;;;;10.07;5.72;;;4.00;99.90;;;;;;4994509;28;20117;-82
2023/03/15 00:22:43;;;;;;;12.02;5.07;;;4.00;99.90;;;;;;5009422;28;20038;-82
2023/03/15 00:25:09;;;;;;;6.53;5.20;;;4.00;99.90;;;;;;4994670;28;20030;-83
2023/03/15 00:27:35;;;;;;;13.13;6.45;;;3.90;99.90;;;;;;5012574;28;20026;-82
2023/03/15 00:30:01;;;;;;;9.88;6.05;;;3.80;99.90;;;;;;5010823;28;20026;-82
2023/03/15 00:32:26;;;;;;;7.80;4.90;;;3.80;99.90;;;;;;4977178;28;20113;-83
2023/03/15 00:34:53;;;;;;;4.50;4.20;;;3.70;99.90;;;;;;4975568;28;20035;-82
2023/03/15 00:37:20;;;;;;;16.08;5.82;;;3.70;99.90;;;;;;4991133;28;20038;-83
2023/03/15 00:39:47;;;;;;;6.30;4.10;;;3.60;99.90;;;;;;4991443;28;20069;-82
2023/03/15 00:42:16;;;;;;;7.75;4.15;;;3.50;99.90;;;;;;4985861;28;20118;-82
2023/03/15 00:44:45;;;;;;;4.60;3.65;;;3.40;99.90;;;;;;4999537;28;20113;-82
2023/03/15 00:47:13;;;;;;;5.93;3.58;;;3.30;99.90;;;;;;5011326;28;20106;-82
2023/03/15 00:49:39;;;;;;;4.03;3.72;;;3.20;99.90;;;;;;4994652;28;20034;-83
2023/03/15 00:52:06;;;;;;;3.22;3.03;;;3.20;99.90;;;;;;4980017;28;20081;-82
2023/03/15 00:54:32;;;;;;;3.78;3.47;;;3.10;99.90;;;;;;4975489;28;20040;-82
2023/03/15 00:56:59;;;;;;;4.55;3.60;;;3.10;99.90;;;;;;4985599;28;20358;-83
2023/03/15 00:59:28;;;;;;;8.43;3.75;;;3.10;99.90;;;;;;5004357;28;20485;-83
2023/03/15 01:01:55;;;;;;;4.55;4.15;;;3.00;99.90;;;;;;4993144;28;20160;-82
2023/03/15 01:04:21;;;;;;;6.57;2.85;;;3.10;99.90;;;;;;4978482;28;20061;-82
2023/03/15 01:06:47;;;;;;;5.55;4.13;;;3.10;99.90;;;;;;4994778;28;20548;-82
2023/03/15 01:09:14;;;;;;;3.50;2.95;;;2.90;99.90;;;;;;5012483;28;20470;-82
2023/03/15 01:11:39;;;;;;;2.47;2.38;;;3.00;99.90;;;;;;4996710;28;20021;-82
2023/03/15 01:14:07;;;;;;;1.58;1.52;;;2.90;99.90;;;;;;5013911;28;20157;-82
2023/03/15 01:16:33;;;;;;;2.92;2.72;;;2.90;99.90;;;;;;5030404;28;20113;-82
2023/03/15 01:18:59;;;;;;;2.22;1.88;;;2.90;99.90;;;;;;4997999;28;20192;-83
2023/03/15 01:21:25;;;;;;;3.15;2.30;;;2.90;99.90;;;;;;5013280;28;20045;-81
2023/03/15 01:23:52;;;;;;;2.15;2.05;;;2.80;99.90;;;;;;5014545;28;20119;-82
2023/03/15 01:26:20;;;;;;;2.63;2.53;;;2.90;99.90;;;;;;4998004;28;20416;-82
2023/03/15 01:28:46;;;;;;;2.00;1.90;;;2.80;99.90;;;;;;4997623;28;20033;-83
2023/03/15 01:31:24;;;;;;;3.05;2.63;;;2.80;99.90;;;;;;5006450;28;20116;-82
2023/03/15 01:33:50;;;;;;;3.35;3.05;;;2.70;99.90;;;;;;4997248;28;20104;-83
2023/03/15 01:36:17;;;;;;;2.83;2.63;;;2.60;99.90;;;;;;4997817;28;20026;-83
2023/03/15 01:38:43;;;;;;;3.03;2.72;;;2.60;99.90;;;;;;4997769;28;20104;-83
2023/03/15 01:41:12;;;;;;;2.50;2.40;;;2.60;99.90;;;;;;4996721;28;20152;-82
2023/03/15 01:43:38;;;;;;;4.07;3.78;;;2.50;99.90;;;;;;5007989;28;20405;-82
2023/03/15 01:46:14;;;;;;;3.22;2.70;;;2.50;99.90;;;;;;4978011;28;20034;-82
2023/03/15 01:48:51;;;;;;;4.45;4.07;;;2.50;99.90;;;;;;4978460;28;20065;-82
2023/03/15 01:51:29;;;;;;;8.40;3.97;;;2.90;99.90;;;;;;4985490;28;20045;-82
2023/03/15 01:54:17;;;;;;;3.22;2.92;;;2.50;99.90;;;;;;4997276;28;20496;-82
2023/03/15 01:56:51;;;;;;;6.20;4.95;;;2.60;99.90;;;;;;5013586;28;20037;-82
2023/03/15 01:59:24;;;;;;;4.20;3.92;;;2.60;99.90;;;;;;4996934;28;20476;-82
2023/03/15 02:01:53;;;;;;;5.65;5.13;;;2.70;99.90;;;;;;5000850;28;20081;-82
2023/03/15 02:04:27;;;;;;;5.97;3.85;;;2.70;99.90;;;;;;4993588;28;20035;-84
2023/03/15 02:06:58;;;;;;;4.78;3.95;;;2.70;99.90;;;;;;4977556;28;20022;-83
2023/03/15 02:09:36;;;;;;;6.70;4.50;;;2.70;99.90;;;;;;4978343;28;20053;-83
2023/03/15 02:12:03;;;;;;;5.60;4.88;;;2.70;99.90;;;;;;4989223;28;20072;-82
2023/03/15 02:14:32;;;;;;;3.78;3.47;;;2.70;99.90;;;;;;4995710;28;20052;-82
2023/03/15 02:16:59;;;;;;;5.97;3.83;;;2.70;99.90;;;;;;4996665;28;20124;-82
2023/03/15 02:19:34;;;;;;;4.20;3.83;;;2.80;99.90;;;;;;5013267;28;20117;-82
2023/03/15 02:22:13;;;;;;;4.28;3.97;;;2.80;99.90;;;;;;5011784;28;20088;-82
2023/03/15 02:25:11;;;;;;;5.22;4.72;;;2.80;99.90;;;;;;5013554;28;20038;-83
2023/03/15 02:27:38;;;;;;;3.83;3.42;;;2.80;99.90;;;;;;5002752;28;20515;-83
2023/03/15 02:30:05;;;;;;;4.22;3.85;;;2.90;99.90;;;;;;5012673;28;20026;-82
2023/03/15 02:32:31;;;;;;;4.18;3.88;;;2.90;99.90;;;;;;5012130;28;20088;-82
2023/03/15 02:34:57;;;;;;;4.47;4.18;;;2.90;99.90;;;;;;5013123;28;20048;-83
2023/03/15 02:37:23;;;;;;;4.90;3.70;;;2.90;99.90;;;;;;4996621;28;20113;-82
2023/03/15 02:39:49;;;;;;;4.18;3.97;;;2.90;99.90;;;;;;5012298;28;20176;-82
2023/03/15 02:42:16;;;;;;;4.18;3.88;;;2.90;99.90;;;;;;5010923;28;20018;-82
2023/03/15 02:44:43;;;;;;;2.88;2.67;;;2.90;99.90;;;;;;4996665;28;20079;-83
2023/03/15 02:47:23;;;;;;;4.53;4.22;;;2.90;99.90;;;;;;4996173;28;20034;-82
2023/03/15 02:49:52;;;;;;;4.07;3.78;;;2.90;99.90;;;;;;5012499;28;20439;-82
2023/03/15 02:52:19;;;;;;;5.15;3.88;;;2.90;99.90;;;;;;4994859;28;20029;-83
2023/03/15 02:54:45;;;;;;;3.83;3.63;;;2.80;99.90;;;;;;4996018;28;20382;-82
2023/03/15 02:57:16;;;;;;;4.47;4.07;;;2.80;99.90;;;;;;5012197;28;20044;-82
2023/03/15 02:59:43;;;;;;;3.63;3.42;;;2.90;99.90;;;;;;5012592;28;20033;-82
2023/03/15 03:02:12;;;;;;;4.40;3.75;;;2.90;99.90;;;;;;4994223;28;20120;-83
2023/03/15 03:04:40;;;;;;;5.80;5.20;;;2.80;99.90;;;;;;5012146;28;20100;-82
2023/03/15 03:07:07;;;;;;;4.25;4.03;;;2.80;99.90;;;;;;4995784;28;20061;-82
2023/03/15 03:09:43;;;;;;;4.75;3.75;;;2.90;99.90;;;;;;4997406;28;20025;-82
2023/03/15 03:12:10;;;;;;;3.85;3.33;;;;;;;;;;4995331;28;20075;-83
2023/03/15 03:14:37;;;;;;;4.55;4.25;;;2.70;99.90;;;;;;4996172;28;20046;-83
2023/03/15 03:17:07;;;;;;;5.40;5.00;;;2.80;99.90;;;;;;4980522;28;20618;-83
2023/03/15 03:19:32;;;;;;;6.22;5.63;;;2.50;99.90;;;;;;4995595;28;20110;-82
2023/03/15 03:21:58;;;;;;;8.07;5.57;;;2.50;99.90;;;;;;5010658;28;20473;-83
2023/03/15 03:24:25;;;;;;;6.32;5.65;;;2.50;99.90;;;;;;5001276;28;20465;-83
2023/03/15 03:26:56;;;;;;;9.30;5.40;;;2.50;99.90;;;;;;4992228;28;20062;-82
2023/03/15 03:29:25;;;;;;;6.72;6.13;;;2.50;99.90;;;;;;5009303;28;20037;-82
2023/03/15 03:31:52;;;;;;;5.75;5.32;;;2.50;99.90;;;;;;5027138;28;20036;-82
2023/03/15 03:34:19;;;;;;;6.20;5.80;;;2.60;99.90;;;;;;4995594;28;20407;-83
2023/03/15 03:36:47;;;;;;;5.63;5.03;;;2.60;99.90;;;;;;4995595;28;20034;-82
2023/03/15 03:39:16;;;;;;;10.40;6.57;;;2.60;99.90;;;;;;4996061;28;20032;-82
2023/03/15 03:41:44;;;;;;;6.93;6.30;;;2.50;99.90;;;;;;4994433;28;20030;-83
2023/03/15 03:44:11;;;;;;;7.97;7.45;;;2.60;99.90;;;;;;5011414;28;20120;-83
2023/03/15 03:46:38;;;;;;;6.57;6.07;;;2.60;99.90;;;;;;5011736;28;20393;-83
2023/03/15 03:49:04;;;;;;;7.60;6.93;;;2.60;99.90;;;;;;5011686;28;20036;-83
2023/03/15 03:51:32;;;;;;;8.23;7.50;;;2.60;99.90;;;;;;4993505;28;20026;-83
2023/03/15 03:53:59;;;;;;;8.73;7.85;;;2.60;99.90;;;;;;5011334;28;20480;-83
2023/03/15 03:56:25;;;;;;;7.60;6.85;;;2.60;99.90;;;;;;4995122;28;20092;-82
2023/03/15 03:58:51;;;;;;;8.45;7.82;;;2.50;99.90;;;;;;4975434;28;20034;-83
2023/03/15 04:01:23;;;;;;;8.57;7.88;;;2.50;99.90;;;;;;4998159;28;20084;-83
2023/03/15 04:03:51;;;;;;;9.55;8.77;;;2.40;99.90;;;;;;5011388;28;20539;-82
2023/03/15 04:06:21;;;;;;;9.02;8.15;;;2.40;99.90;;;;;;4995361;28;20026;-83
2023/03/15 04:08:47;;;;;;;8.68;7.97;;;2.50;99.90;;;;;;5011360;28;20045;-83
2023/03/15 04:11:19;;;;;;;11.10;9.93;;;2.50;99.90;;;;;;4993312;28;20037;-82
2023/03/15 04:13:52;;;;;;;10.05;9.15;;;2.60;99.90;;;;;;4992991;28;20038;-82
2023/03/15 04:16:19;;;;;;;9.40;8.60;;;2.50;99.90;;;;;;4978557;28;20038;-82
2023/03/15 04:18:55;;;;;;;9.35;8.63;;;2.50;99.90;;;;;;5011218;28;20113;-83
2023/03/15 04:21:22;;;;;;;10.50;9.32;;;2.30;99.90;;;;;;5011538;28;20107;-82
2023/03/15 04:23:52;;;;;;;8.98;8.27;;;2.20;99.90;;;;;;5011427;28;20021;-83
2023/03/15 04:26:47;;;;;;;9.82;9.00;;;2.60;99.90;;;;;;5000139;28;20121;-82
2023/03/15 04:29:33;;;;;;;8.05;7.40;;;2.00;99.90;;;;;;5012131;28;20045;-82
2023/03/15 04:32:12;;;;;;;10.50;9.50;;;2.60;99.90;;;;;;4989071;28;20030;-82
2023/03/15 04:34:50;;;;;;;11.15;10.23;;;1.90;99.90;;;;;;4976036;28;20050;-83
2023/03/15 04:37:37;;;;;;;12.68;11.57;;;2.00;99.90;;;;;;4991528;28;20030;-82
2023/03/15 04:40:18;;;;;;;11.50;10.32;;;2.00;99.90;;;;;;4977181;28;20069;-82
2023/03/15 04:42:55;;;;;;;13.65;12.50;;;1.70;99.90;;;;;;4973396;28;20046;-82
2023/03/15 04:45:53;;;;;;;13.32;11.60;;;2.10;99.90;;;;;;4955914;28;20045;-82
2023/03/15 04:48:31;;;;;;;12.23;11.13;;;1.90;99.90;;;;;;4959328;28;20093;-82
2023/03/15 04:51:08;;;;;;;11.88;10.68;;;1.90;99.90;;;;;;4957894;28;20492;-81
2023/03/15 04:53:59;;;;;;;12.25;11.23;;;1.70;99.90;;;;;;4961037;28;20543;-82
2023/03/15 04:56:48;;;;;;;11.80;10.82;;;1.50;99.90;;;;;;4967675;28;20493;-83
2023/03/15 04:59:50;;;;;;;14.48;12.82;;;;;;;;;;4943706;29;20372;-84
2023/03/15 05:02:34;;;;;;;15.18;13.75;;;1.30;99.90;;;;;;4968218;28;20034;-82
2023/03/15 05:05:23;;;;;;;14.18;12.98;;;1.30;99.90;;;;;;4952298;28;20043;-83
2023/03/15 05:08:08;;;;;;;13.43;12.30;;;1.20;99.90;;;;;;4954552;28;20134;-81
2023/03/15 05:11:09;;;;;;;13.23;12.13;;;1.10;99.90;;;;;;4957362;28;20031;-82
2023/03/15 05:13:48;;;;;;;10.75;9.85;;;0.80;99.90;;;;;;4976225;28;20066;-82
2023/03/15 05:16:28;;;;;;;13.60;12.32;;;0.90;99.90;;;;;;4986203;28;20200;-84
2023/03/15 05:18:55;;;;;;;12.05;11.05;;;1.40;99.90;;;;;;4993834;28;20113;-82
2023/03/15 05:21:44;;;;;;;15.43;13.95;;;1.10;99.90;;;;;;4978762;28;20117;-83
2023/03/15 05:24:33;;;;;;;15.65;14.13;;;0.70;99.90;;;;;;4983339;28;20066;-83
2023/03/15 05:27:17;;;;;;;14.55;13.18;;;0.70;99.90;;;;;;5005250;28;20050;-83
2023/03/15 05:29:50;;;;;;;15.50;13.60;;;0.50;99.90;;;;;;4977050;28;20416;-83
2023/03/15 05:32:36;;;;;;;15.55;14.13;;;0.60;99.90;;;;;;5009457;28;20096;-81
2023/03/15 05:35:34;;;;;;;19.50;16.55;;;0.50;99.90;;;;;;4981425;28;20488;-83
2023/03/15 05:38:25;;;;;;;20.88;15.60;;;0.60;99.90;;;;;;5000038;28;20061;-84
2023/03/15 05:40:57;;;;;;;18.27;16.65;;;0.50;99.90;;;;;;5010214;28;20030;-84
2023/03/15 05:43:43;;;;;;;19.58;17.58;;;0.50;99.90;;;;;;4964371;28;20057;-84
2023/03/15 05:46:26;;;;;;;18.95;17.45;;;0.40;99.90;;;;;;4998440;28;20127;-85
2023/03/15 05:49:15;;;;;;;18.45;15.60;;;0.30;99.90;;;;;;5009659;28;20037;-82
2023/03/15 05:52:05;;;;;;;15.77;14.40;;;0.20;99.90;;;;;;4996002;28;20026;-84
2023/03/15 05:54:44;;;;;;;18.95;17.27;;;;;;;;;;4980134;28;20048;-85
2023/03/15 05:57:31;;;;;;;17.98;14.68;;;;;;;;;;4980821;28;20464;-84
2023/03/15 06:00:16;;;;;;;17.42;15.77;;;0.20;99.90;;;;;;5012422;28;20501;-85
2023/03/15 06:02:46;;;;;;;18.25;16.40;;;0.20;99.90;;;;;;4960975;28;20030;-83
2023/03/15 06:05:35;;;;;;;18.67;16.75;;;0.20;99.90;;;;;;4995170;28;20038;-84
2023/03/15 06:08:03;;;;;;;19.88;17.90;;;0.30;99.90;;;;;;4990408;28;20061;-83
2023/03/15 06:10:30;;;;;;;19.55;17.48;;;0.30;99.90;;;;;;4993774;28;20046;-82
2023/03/15 06:13:00;;;;;;;22.48;20.00;;;0.30;99.90;;;;;;4973408;28;20034;-83
2023/03/15 06:15:26;;;;;;;23.55;20.77;;;0.50;99.90;;;;;;4994256;28;20042;-83
2023/03/15 06:17:54;;;;;;;21.33;19.13;;;;;;;;;;5009750;28;20068;-82
2023/03/15 06:20:21;;;;;;;23.55;21.13;;;0.70;99.90;;;;;;4997486;28;20022;-82
2023/03/15 06:22:47;;;;;;;23.92;21.00;;;0.80;99.90;;;;;;4995796;28;20030;-83
2023/03/15 06:25:25;;;;;;;26.48;21.25;;;0.90;99.90;;;;;;4994944;28;20030;-83
2023/03/15 06:27:51;;;;;;;26.95;22.10;;;1.10;99.90;;;;;;5012158;28;20366;-84
2023/03/15 06:30:19;;;;;;;25.00;21.20;;;1.10;99.90;;;;;;5010926;28;20105;-82
2023/03/15 06:32:45;;;;;;;25.00;22.33;;;1.20;99.90;;;;;;4980648;28;20030;-82
2023/03/15 06:35:13;;;;;;;23.60;20.10;;;1.40;99.90;;;;;;4980119;28;20060;-81
2023/03/15 06:37:40;;;;;;;23.02;20.70;;;1.50;99.90;;;;;;4996661;28;20030;-82
2023/03/15 06:40:08;;;;;;;21.63;19.58;;;1.70;99.90;;;;;;5013038;28;20033;-82
2023/03/15 06:42:35;;;;;;;22.48;20.23;;;;;;;;;;5011592;28;20105;-81
2023/03/15 06:45:02;;;;;;;25.45;20.50;;;2.10;99.90;;;;;;4996605;28;20026;-81
2023/03/15 06:47:28;;;;;;;22.67;20.23;;;2.40;99.90;;;;;;4995852;28;20108;-81
2023/03/15 06:49:54;;;;;;;30.80;26.98;;;3.40;99.90;;;;;;5012198;28;20044;-81
2023/03/15 06:52:21;;;;;;;28.25;24.95;;;4.90;99.90;;;;;;4995485;28;20072;-80
2023/03/15 06:54:47;;;;;;;16.83;15.05;;;5.10;99.90;;;;;;4999111;28;20050;-81
2023/03/15 06:57:13;;;;;;;10.48;9.43;;;5.20;99.90;;;;;;5011824;28;20133;-84
2023/03/15 06:59:39;;;;;;;12.40;9.98;;;;;;;;;;5012805;28;20084;-85
2023/03/15 07:02:12;;;;;;;9.52;8.60;;;6.10;99.90;;;;;;4994567;28;20033;-84
2023/03/15 07:04:38;;;;;;;10.80;9.00;;;7.70;99.90;;;;;;4996388;28;20496;-84
2023/03/15 07:07:03;;;;;;;8.30;6.55;;;7.50;99.90;;;;;;5012493;28;20513;-83
2023/03/15 07:09:29;;;;;;;7.05;5.85;;;8.40;99.90;;;;;;5011990;28;20056;-84
2023/03/15 07:11:55;;;;;;;5.68;5.15;;;8.50;99.90;;;;;;5009840;28;20037;-83
2023/03/15 07:14:21;;;;;;;8.05;5.82;;;8.60;99.90;;;;;;5011956;28;20180;-83
2023/03/15 07:16:48;;;;;;;5.40;4.07;;;8.40;99.90;;;;;;5012564;28;20473;-83
2023/03/15 07:19:13;;;;;;;6.40;4.22;;;7.70;99.90;;;;;;5012469;28;20042;-85
2023/03/15 07:21:39;;;;;;;5.15;4.07;;;7.10;99.90;;;;;;4961595;28;20033;-84
2023/03/15 07:24:05;;;;;;;5.40;4.70;;;6.50;99.90;;;;;;5012578;28;20547;-85
2023/03/15 07:26:31;;;;;;;5.10;3.80;;;6.50;99.90;;;;;;5012541;28;20456;-83
2023/03/15 07:28:57;;;;;;;5.75;4.40;;;6.20;99.90;;;;;;5014120;28;20033;-83
2023/03/15 07:31:23;;;;;;;4.32;3.78;;;5.90;99.90;;;;;;4978478;28;20400;-83
2023/03/15 07:33:48;;;;;;;6.20;4.95;;;5.60;99.90;;;;;;5011807;28;20042;-83
2023/03/15 07:36:14;;;;;;;4.70;4.28;;;5.70;99.90;;;;;;4995629;28;20038;-83
2023/03/15 07:38:40;;;;;;;5.03;3.95;;;5.60;99.90;;;;;;4990468;28;20053;-84
2023/03/15 07:41:07;;;;;;;5.75;4.50;;;5.50;99.90;;;;;;4986587;28;20045;-83
2023/03/15 07:43:35;;;;;;;4.68;4.25;;;5.40;99.90;;;;;;4995487;28;20070;-84
2023/03/15 07:46:10;;;;;;;7.13;6.50;;;5.30;99.90;;;;;;4996589;28;20033;-84
2023/03/15 07:48:36;;;;;;;7.78;4.15;;;5.30;99.90;;;;;;5011914;28;20381;-84
2023/03/15 07:51:01;;;;;;;5.57;5.05;;;5.30;99.90;;;;;;5010831;28;20030;-84
2023/03/15 07:53:27;;;;;;;6.03;4.28;;;5.30;99.90;;;;;;5010920;28;20061;-84
2023/03/15 07:55:53;;;;;;;4.82;4.45;;;5.20;99.90;;;;;;5012212;28;20049;-84
2023/03/15 07:58:19;;;;;;;9.40;5.63;;;5.20;99.90;;;;;;4995273;28;20076;-84
2023/03/15 08:00:45;;;;;;;6.30;5.20;;;5.30;99.90;;;;;;5010160;28;20032;-84
2023/03/15 08:03:11;;;;;;;7.65;6.70;;;5.40;99.90;;;;;;5011468;28;20037;-84
2023/03/15 08:05:37;;;;;;;9.60;6.25;;;5.30;99.90;;;;;;5011527;28;20607;-83
2023/03/15 08:08:03;;;;;;;7.50;6.80;;;5.30;99.90;;;;;;4994644;28;20022;-83
2023/03/15 08:10:28;;;;;;;5.32;4.78;;;5.40;99.90;;;;;;4992933;28;20434;-85
2023/03/15 08:12:54;;;;;;;6.47;5.72;;;5.30;99.90;;;;;;5012027;28;20457;-83
2023/03/15 08:15:20;;;;;;;8.68;5.35;;;5.40;99.90;;;;;;4994535;28;20026;-83
2023/03/15 08:17:47;;;;;;;4.63;4.13;;;5.50;99.90;;;;;;4994909;28;20030;-83
2023/03/15 08:20:16;;;;;;;6.85;5.22;;;5.70;99.90;;;;;;5011374;28;20380;-84
2023/03/15 08:22:43;;;;;;;4.83;4.40;;;5.70;99.90;;;;;;5008564;28;20036;-83
2023/03/15 08:25:12;;;;;;;5.03;4.60;;;5.90;99.90;;;;;;4999650;28;20108;-84
2023/03/15 08:27:38;;;;;;;5.45;4.72;;;6.10;99.90;;;;;;5010475;28;20037;-84
2023/03/15 08:30:04;;;;;;;5.30;4.80;;;6.30;99.90;;;;;;4994832;28;20072;-84
2023/03/15 08:32:30;;;;;;;4.45;4.05;;;6.60;99.90;;;;;;5011853;28;20477;-84
2023/03/15 08:34:57;;;;;;;5.13;4.63;;;7.00;99.90;;;;;;4989369;28;20042;-84
2023/03/15 08:37:22;;;;;;;5.57;4.45;;;7.50;99.90;;;;;;5010568;28;20429;-84
2023/03/15 08:39:48;;;;;;;7.05;3.08;;;7.80;99.90;;;;;;4993812;28;20044;-84
2023/03/15 08:42:14;;;;;;;6.85;4.18;;;8.00;99.90;;;;;;4993209;28;20065;-84
2023/03/15 08:44:40;;;;;;;5.25;4.75;;;8.20;99.90;;;;;;4994619;28;20572;-83
2023/03/15 08:47:06;;;;;;;8.05;5.03;;;8.60;99.90;;;;;;5012249;28;20036;-83
2023/03/15 08:49:32;;;;;;;3.00;2.80;;;9.20;99.90;;;;;;5010474;28;20022;-83
2023/03/15 08:51:58;;;;;;;3.60;3.25;;;10.10;99.90;;;;;;4991848;28;20033;-84
2023/03/15 08:54:26;;;;;;;22.05;3.78;;;11.80;99.90;;;;;;5012499;28;20038;-83
2023/03/15 08:56:52;;;;;;;5.82;4.30;;;18.10;99.90;;;;;;5010742;28;20125;-83
2023/03/15 08:59:17;;;;;;;3.53;2.35;;;18.30;96.40;;;;;;5010808;28;20109;-84
2023/03/15 09:01:44;;;;;;;3.03;2.50;;;20.80;90.50;;;;;;5009850;28;20064;-82
2023/03/15 09:04:10;;;;;;;3.28;3.05;;;23.40;81.00;;;;;;5011061;28;20041;-83
2023/03/15 09:06:36;;;;;;;5.65;3.20;;;24.20;71.20;;;;;;5011789;28;20034;-83
2023/03/15 09:09:04;;;;;;;5.68;3.03;;;25.30;67.90;;;;;;5010743;28;20034;-82
2023/03/15 09:11:29;;;;;;;4.80;3.55;;;26.50;63.90;;;;;;4993051;28;20029;-82
2023/03/15 09:13:55;;;;;;;4.47;3.42;;;26.10;61.70;;;;;;5011095;28;20408;-83
2023/03/15 09:16:21;;;;;;;3.10;2.80;;;26.80;60.00;;;;;;4994178;28;20134;-82
2023/03/15 09:18:47;;;;;;;2.60;2.40;;;27.00;59.20;;;;;;5012155;28;20544;-83
2023/03/15 09:21:12;;;;;;;5.97;2.60;;;27.40;58.40;;;;;;4993631;28;20461;-82
2023/03/15 09:23:38;;;;;;;4.68;2.92;;;28.30;56.50;;;;;;4963106;28;20042;-83
2023/03/15 09:26:04;;;;;;;5.43;3.25;;;28.80;54.60;;;;;;5015542;28;20026;-83
2023/03/15 09:28:30;;;;;;;4.55;2.22;;;29.30;53.10;;;;;;5030648;28;20026;-82
2023/03/15 09:30:56;;;;;;;2.83;2.30;;;28.30;53.70;;;;;;4997178;28;20032;-83
2023/03/15 09:33:22;;;;;;;3.38;2.38;;;29.00;53.00;;;;;;5014945;28;20050;-83
2023/03/15 09:35:51;;;;;;;2.50;2.05;;;29.70;50.70;;;;;;5015596;28;20029;-83
2023/03/15 09:38:18;;;;;;;7.28;5.50;;;29.20;49.60;;;;;;5013853;28;20055;-83
2023/03/15 09:40:46;;;;;;;5.80;3.03;;;29.30;48.80;;;;;;4997313;28;20034;-83
2023/03/15 09:43:53;;;;;;;4.32;2.08;;;25.90;49.90;;;;;;4997856;28;20029;-83
2023/03/15 09:46:42;;;;;;;4.65;1.98;;;22.70;55.40;;;;;;4987614;28;20046;-83
2023/03/15 09:49:13;;;;;;;3.78;2.40;;;24.50;54.50;;;;;;5014103;28;20042;-83
2023/03/15 09:51:54;;;;;;;8.98;2.58;;;25.10;51.80;;;;;;4996034;28;20105;-83
2023/03/15 09:55:04;;;;;;;4.63;2.40;;;24.90;51.30;;;;;;4997619;28;20121;-83
2023/03/15 09:57:54;;;;;;;4.63;1.88;;;23.90;51.90;;;;;;4954771;29;20046;-82
2023/03/15 10:00:39;;;;;;;2.42;1.55;;;22.30;53.60;;;;;;5030351;28;20038;-82
2023/03/15 10:03:10;;;;;;;2.47;1.55;;;23.10;50.70;;;;;;4994313;28;20042;-83
2023/03/15 10:05:51;;;;;;;6.00;3.03;;;22.40;52.70;;;;;;4994522;28;20030;-82
2023/03/15 10:08:18;;;;;;;7.07;6.35;;;20.60;54.60;;;;;;4999652;28;20073;-83
2023/03/15 10:10:57;;;;;;;19.55;14.90;;;22.60;53.80;;;;;;4996358;28;20049;-83
2023/03/15 10:13:41;;;;;;;2.67;2.17;;;21.60;54.10;;;;;;4995633;28;20041;-83
2023/03/15 10:16:26;;;;;;;5.18;2.35;;;24.00;51.30;;;;;;4977678;28;20302;-83
2023/03/15 10:18:57;;;;;;;6.55;2.25;;;24.10;47.80;;;;;;4978307;28;20363;-83
2023/03/15 10:21:36;;;;;;;2.33;1.85;;;20.60;51.50;;;;;;5000692;28;20038;-82
2023/03/15 10:24:04;;;;;;;1.45;1.10;;;20.40;58.20;;;;;;4983479;28;20107;-83
2023/03/15 10:26:35;;;;;;;2.17;1.48;;;21.30;54.50;;;;;;4977369;28;20030;-83
2023/03/15 10:29:08;;;;;;;1.48;1.02;;;22.70;51.10;;;;;;4993670;28;20039;-83
2023/03/15 10:31:38;;;;;;;2.72;2.53;;;23.60;49.30;;;;;;5002593;28;20034;-82
2023/03/15 10:34:04;;;;;;;2.00;0.80;;;24.00;48.70;;;;;;5014702;28;20045;-83
2023/03/15 10:36:30;;;;;;;6.22;1.33;;;24.00;48.20;;;;;;5012178;28;20080;-83
2023/03/15 10:38:57;;;;;;;7.40;1.42;;;24.30;46.60;;;;;;4996142;28;20022;-82
2023/03/15 10:41:36;;;;;;;9.32;2.10;;;22.50;49.20;;;;;;4995455;28;20030;-83
2023/03/15 10:44:06;;;;;;;1.58;0.82;;;21.50;49.10;;;;;;5013383;28;20470;-82
2023/03/15 10:46:34;;;;;;;5.00;1.45;;;19.80;51.10;;;;;;5013248;28;20030;-82
2023/03/15 10:49:09;;;;;;;3.05;2.45;;;19.10;51.60;;;;;;4996966;28;20392;-83
2023/03/15 10:51:46;;;;;;;4.30;0.82;;;19.70;53.20;;;;;;4996096;28;20026;-82
2023/03/15 10:54:21;;;;;;;5.13;1.73;;;18.40;50.50;;;;;;4996064;28;20045;-82
2023/03/15 10:56:55;;;;;;;6.53;1.48;;;19.20;53.70;;;;;;5011843;28;20416;-82
2023/03/15 10:59:24;;;;;;;2.90;0.85;;;18.50;52.40;;;;;;4983154;28;20030;-83
2023/03/15 11:02:12;;;;;;;3.70;1.35;;;16.50;53.70;;;;;;4994690;28;20104;-82
2023/03/15 11:04:41;;;;;;;5.40;1.80;;;16.30;54.40;;;;;;5013590;28;20025;-83
2023/03/15 11:07:07;;;;;;;5.93;1.38;;;15.60;54.70;;;;;;4996456;28;20060;-82
2023/03/15 11:09:44;;;;;;;1.13;1.02;;;15.70;56.50;;;;;;5013686;28;20026;-81
2023/03/15 11:12:22;;;;;;;2.45;0.80;;;15.20;63.90;;;;;;5007883;28;20084;-81
2023/03/15 11:14:51;;;;;;;3.00;0.90;;;15.40;56.50;;;;;;4993659;28;20058;-80
2023/03/15 11:17:18;;;;;;;3.20;0.80;;;15.20;56.60;;;;;;4976304;28;20034;-80
2023/03/15 11:19:55;;;;;;;9.20;1.48;;;13.90;57.50;;;;;;4996046;28;20076;-79
2023/03/15 11:22:22;;;;;;;2.20;0.88;;;15.10;57.60;;;;;;4994321;28;20030;-79
2023/03/15 11:24:48;;;;;;;2.45;0.77;;;15.00;59.10;;;;;;4996145;28;20033;-81
2023/03/15 11:27:17;;;;;;;2.58;1.30;;;15.60;59.20;;;;;;5011393;28;20519;-81
2023/03/15 11:29:47;;;;;;;2.22;1.85;;;16.70;56.10;;;;;;4995725;28;20492;-82
2023/03/15 11:32:18;;;;;;;0.90;0.90;;;16.90;53.80;;;;;;5011485;28;20080;-81
2023/03/15 11:34:47;;;;;;;3.97;1.20;;;17.70;58.70;;;;;;4990878;28;20074;-81
2023/03/15 11:37:42;;;;;;;1.77;1.30;;;17.80;56.20;;;;;;4976502;28;20036;-81
2023/03/15 11:40:16;;;;;;;2.03;1.10;;;18.10;54.20;;;;;;4993318;28;20031;-81
2023/03/15 11:42:58;;;;;;;6.57;0.68;;;16.50;51.90;;;;;;5009663;28;20416;-81
2023/03/15 11:45:44;;;;;;;4.00;1.20;;;16.40;55.20;;;;;;4995643;28;20028;-81
2023/03/15 11:48:41;;;;;;;8.07;4.80;;;16.20;59.70;;;;;;5012538;28;20121;-81
2023/03/15 11:51:11;;;;;;;10.70;5.55;;;16.80;63.20;;;;;;4994125;28;20030;-82
2023/03/15 11:54:17;;;;;;;48.15;34.08;;;16.60;56.60;;;;;;4992970;28;20026;-81
2023/03/15 11:56:42;;;;;;;19.35;11.95;;;17.20;55.90;;;;;;4989692;28;20054;-80
2023/03/15 11:59:11;;;;;;;2.58;2.38;;;17.60;56.20;;;;;;4977413;28;20065;-81
2023/03/15 12:01:49;;;;;;;4.32;1.40;;;18.10;58.00;;;;;;5011334;28;20113;-82
2023/03/15 12:04:35;;;;;;;0.30;0.30;;;16.10;54.80;;;;;;4981261;28;20507;-81
2023/03/15 12:07:17;;;;;;;2.45;0.70;;;16.10;57.30;;;;;;5011167;28;20042;-80
2023/03/15 12:10:23;;;;;;;3.55;1.17;;;16.30;56.00;;;;;;4993421;28;20030;-81
2023/03/15 12:12:58;;;;;;;1.58;0.50;;;14.90;54.60;;;;;;4979867;28;20512;-80
2023/03/15 12:15:27;;;;;;;2.30;1.42;;;12.70;62.20;;;;;;5010766;28;20037;-80
2023/03/15 12:17:57;;;;;;;1.65;0.80;;;11.70;65.90;;;;;;4994285;28;20511;-80
2023/03/15 12:20:48;;;;;;;1.70;1.02;;;11.10;66.80;;;;;;4993799;28;20069;-80
2023/03/15 12:23:21;;;;;;;2.83;1.35;;;9.60;69.40;;;;;;4975187;28;20380;-80
2023/03/15 12:26:00;;;;;;;6.03;1.33;;;9.80;69.80;;;;;;4974594;28;20120;-81
2023/03/15 12:28:37;;;;;;;4.05;0.88;;;10.10;69.20;;;;;;4975144;28;20581;-80
2023/03/15 12:31:11;;;;;;;0.88;0.82;;;9.90;67.20;;;;;;4994108;28;20393;-81
2023/03/15 12:34:06;;;;;;;4.00;0.70;;;10.10;68.20;;;;;;5010094;28;20495;-81
2023/03/15 12:36:38;;;;;;;3.10;0.70;;;10.90;63.90;;;;;;5000824;28;20046;-80
2023/03/15 12:39:16;;;;;;;4.25;1.13;;;11.60;64.10;;;;;;4990128;28;20062;-81
2023/03/15 12:41:45;;;;;;;6.82;2.67;;;12.90;63.80;;;;;;5000004;28;20034;-81
2023/03/15 12:44:32;;;;;;;0.50;0.50;;;13.20;61.60;;;;;;4994306;28;20056;-80
2023/03/15 12:47:00;;;;;;;2.50;0.95;;;13.90;57.80;;;;;;5010211;28;20036;-80
2023/03/15 12:49:28;;;;;;;0.93;0.90;;;13.30;58.10;;;;;;4995369;28;20025;-81
2023/03/15 12:51:54;;;;;;;0.68;0.65;;;13.10;72.20;;;;;;4992482;28;20476;-81
2023/03/15 12:54:23;;;;;;;4.95;1.40;;;13.00;63.30;;;;;;4994134;28;20072;-81
2023/03/15 12:56:58;;;;;;;3.33;0.98;;;13.70;60.70;;;;;;5011529;28;20484;-81
2023/03/15 12:59:40;;;;;;;5.95;1.58;;;13.40;62.90;;;;;;5013120;28;20041;-81
2023/03/15 13:02:31;;;;;;;0.43;0.43;;;14.60;70.30;;;;;;4997040;28;20099;-82
2023/03/15 13:05:09;;;;;;;1.77;1.08;;;14.60;63.00;;;;;;5013900;28;20030;-82
2023/03/15 13:07:50;;;;;;;0.45;0.45;;;14.70;59.00;;;;;;4997447;28;20103;-81
2023/03/15 13:10:32;;;;;;;4.88;1.20;;;14.70;59.30;;;;;;5015516;28;20387;-81
2023/03/15 13:13:07;;;;;;;0.75;0.75;;;12.80;60.00;;;;;;4990719;28;20034;-81
2023/03/15 13:15:53;;;;;;;1.13;1.02;;;12.00;70.00;;;;;;4993688;28;20043;-81